createdAt,value
2022-12-27T00:00:14.236Z,33.40
2022-12-27T00:03:15.843Z,27.60
2022-12-27T00:06:21.400Z,27.70
2022-12-27T00:09:23.085Z,28.30
2022-12-27T00:12:24.635Z,28.90
2022-12-27T00:15:26.160Z,24.60
2022-12-27T00:18:27.660Z,22.80
2022-12-27T00:21:29.351Z,26.40
2022-12-27T00:24:30.924Z,24.40
2022-12-27T00:27:32.537Z,27.10
2022-12-27T00:30:34.151Z,27.20
2022-12-27T00:33:36.738Z,27.40
2022-12-27T00:36:38.360Z,26.50
2022-12-27T00:39:39.962Z,28.40
2022-12-27T00:42:41.503Z,29.30
2022-12-27T00:45:43.648Z,30.90
2022-12-27T00:48:47.045Z,28.70
2022-12-27T00:51:48.613Z,30.10
2022-12-27T00:54:50.170Z,28.00
2022-12-27T00:57:51.823Z,27.50
2022-12-27T01:00:53.667Z,29.20
2022-12-27T01:03:56.262Z,28.00
2022-12-27T01:06:58.982Z,33.60
2022-12-27T01:10:00.560Z,31.70
2022-12-27T01:13:02.999Z,31.10
2022-12-27T01:16:19.023Z,31.70
2022-12-27T01:19:20.608Z,29.90
2022-12-27T01:22:23.038Z,28.40
2022-12-27T01:25:24.564Z,28.10
2022-12-27T01:28:26.188Z,30.60
2022-12-27T01:31:28.322Z,30.90
2022-12-27T01:34:30.065Z,29.50
2022-12-27T01:37:31.610Z,29.10
2022-12-27T01:40:35.298Z,32.70
2022-12-27T01:43:37.675Z,31.00
2022-12-27T01:46:39.236Z,29.70
2022-12-27T01:50:01.802Z,31.30
2022-12-27T01:53:09.215Z,27.90
2022-12-27T01:56:20.541Z,29.10
2022-12-27T01:59:22.128Z,28.30
2022-12-27T02:02:23.675Z,27.80
2022-12-27T02:05:27.134Z,28.70
2022-12-27T02:08:49.562Z,29.60
2022-12-27T02:11:53.136Z,27.70
2022-12-27T02:14:54.792Z,33.80
2022-12-27T02:17:56.393Z,30.10
2022-12-27T02:21:16.466Z,29.20
2022-12-27T02:24:39.279Z,28.40
2022-12-27T02:28:00.230Z,26.90
2022-12-27T02:31:08.017Z,28.80
2022-12-27T02:34:12.675Z,29.30
2022-12-27T02:37:14.447Z,30.70
2022-12-27T02:40:35.607Z,30.30
2022-12-27T02:43:55.674Z,29.10
2022-12-27T02:47:16.101Z,31.90
2022-12-27T02:50:36.459Z,29.80
2022-12-27T02:53:51.672Z,30.90
2022-12-27T02:57:10.849Z,29.30
2022-12-27T03:00:36.078Z,30.30
2022-12-27T03:03:49.418Z,31.10
2022-12-27T03:07:20.345Z,29.80
2022-12-27T03:10:43.775Z,29.20
2022-12-27T03:14:12.929Z,30.40
2022-12-27T03:17:18.866Z,30.50
2022-12-27T03:20:40.413Z,29.10
2022-12-27T03:24:01.959Z,31.00
2022-12-27T03:27:09.311Z,31.10
2022-12-27T03:30:29.902Z,29.60
2022-12-27T03:33:32.414Z,30.40
2022-12-27T03:36:52.603Z,32.90
2022-12-27T03:39:54.088Z,30.80
2022-12-27T03:43:14.336Z,28.90
2022-12-27T03:46:34.735Z,28.60
2022-12-27T03:49:41.276Z,29.40
2022-12-27T03:52:45.319Z,25.90
2022-12-27T03:55:47.243Z,27.80
2022-12-27T03:58:48.867Z,28.70
2022-12-27T04:01:50.543Z,27.30
2022-12-27T04:04:52.257Z,27.00
2022-12-27T04:08:12.609Z,27.10
2022-12-27T04:11:32.662Z,26.20
2022-12-27T04:14:52.536Z,26.20
2022-12-27T04:18:12.811Z,28.70
2022-12-27T04:21:32.985Z,27.30
2022-12-27T04:24:53.141Z,27.40
2022-12-27T04:28:13.011Z,29.00
2022-12-27T04:31:33.279Z,27.60
2022-12-27T04:34:44.061Z,28.20
2022-12-27T04:37:45.698Z,29.00
2022-12-27T04:41:06.026Z,27.80
2022-12-27T04:44:26.851Z,28.50
2022-12-27T04:47:47.917Z,28.50
2022-12-27T04:51:07.947Z,27.30
2022-12-27T04:54:33.478Z,25.40
2022-12-27T04:57:34.959Z,27.80
2022-12-27T05:00:55.008Z,28.90
2022-12-27T05:03:56.551Z,29.70
2022-12-27T05:06:58.592Z,29.70
2022-12-27T05:10:19.936Z,29.20
2022-12-27T05:13:40.206Z,26.00
2022-12-27T05:16:42.827Z,27.90
2022-12-27T05:19:44.315Z,27.80
2022-12-27T05:23:04.368Z,29.30
2022-12-27T05:26:05.962Z,28.00
2022-12-27T05:29:08.280Z,28.50
2022-12-27T05:32:13.282Z,26.30
2022-12-27T05:35:15.520Z,27.50
2022-12-27T05:38:17.057Z,26.70
2022-12-27T05:41:19.128Z,28.40
2022-12-27T05:44:20.643Z,29.90
2022-12-27T05:47:22.188Z,29.10
2022-12-27T05:50:23.693Z,29.50
2022-12-27T05:53:25.374Z,27.10
2022-12-27T05:56:26.944Z,27.60
2022-12-27T05:59:28.469Z,26.10
2022-12-27T06:02:30.187Z,25.70
2022-12-27T06:05:33.045Z,26.90
2022-12-27T06:08:36.093Z,26.80
2022-12-27T06:11:37.607Z,26.80
2022-12-27T06:14:39.124Z,25.10
2022-12-27T06:17:40.734Z,25.40
2022-12-27T06:20:42.284Z,24.70
2022-12-27T06:23:47.270Z,27.20
2022-12-27T06:26:48.979Z,31.30
2022-12-27T06:29:50.554Z,29.20
2022-12-27T06:32:52.141Z,26.10
2022-12-27T06:35:53.832Z,33.40
2022-12-27T06:38:55.346Z,34.50
2022-12-27T06:41:56.912Z,32.60
2022-12-27T06:44:58.439Z,36.20
2022-12-27T06:47:59.966Z,33.50
2022-12-27T06:51:04.174Z,30.10
2022-12-27T06:54:05.923Z,31.20
2022-12-27T06:57:07.459Z,31.00
2022-12-27T07:00:09.407Z,28.40
2022-12-27T07:03:11.031Z,27.70
2022-12-27T07:06:13.019Z,28.80
2022-12-27T07:09:14.494Z,31.20
2022-12-27T07:12:16.199Z,30.00
2022-12-27T07:15:17.694Z,29.80
2022-12-27T07:18:19.198Z,29.90
2022-12-27T07:21:21.874Z,30.50
2022-12-27T07:24:23.757Z,26.70
2022-12-27T07:27:25.407Z,25.80
2022-12-27T07:30:27.005Z,27.30
2022-12-27T07:33:28.695Z,28.20
2022-12-27T07:36:33.344Z,22.90
2022-12-27T07:39:34.875Z,24.00
2022-12-27T07:42:36.416Z,23.00
2022-12-27T07:45:38.418Z,21.80
2022-12-27T07:48:40.048Z,21.90
2022-12-27T07:51:41.636Z,20.50
2022-12-27T07:54:43.205Z,21.70
2022-12-27T07:57:44.710Z,21.90
2022-12-27T08:00:46.582Z,20.40
2022-12-27T08:03:48.420Z,18.30
2022-12-27T08:06:50.041Z,22.00
2022-12-27T08:09:52.009Z,20.00
2022-12-27T08:12:54.619Z,19.60
2022-12-27T08:15:56.200Z,19.80
2022-12-27T08:19:01.911Z,17.70
2022-12-27T08:22:06.479Z,19.20
2022-12-27T08:25:08.238Z,19.20
2022-12-27T08:28:11.207Z,20.00
2022-12-27T08:31:13.449Z,20.20
2022-12-27T08:34:15.467Z,22.90
2022-12-27T08:37:17.130Z,20.20
2022-12-27T08:40:18.918Z,19.90
2022-12-27T08:43:20.461Z,17.90
2022-12-27T08:46:22.083Z,19.70
2022-12-27T08:49:23.884Z,19.40
2022-12-27T08:52:25.841Z,20.50
2022-12-27T08:55:27.946Z,19.40
2022-12-27T08:58:29.479Z,19.00
2022-12-27T09:01:31.214Z,20.10
2022-12-27T09:04:32.809Z,20.60
2022-12-27T09:07:34.468Z,21.10
2022-12-27T09:10:37.096Z,20.50
2022-12-27T09:13:39.135Z,20.30
2022-12-27T09:16:40.674Z,22.70
2022-12-27T09:19:42.264Z,23.00
2022-12-27T09:22:45.330Z,23.10
2022-12-27T09:25:46.935Z,23.00
2022-12-27T09:28:49.444Z,24.10
2022-12-27T09:31:51.015Z,23.10
2022-12-27T09:34:52.651Z,23.80
2022-12-27T09:37:54.687Z,24.00
2022-12-27T09:40:57.536Z,25.40
2022-12-27T09:44:17.555Z,25.30
2022-12-27T09:47:23.612Z,25.80
2022-12-27T09:50:30.501Z,25.70
2022-12-27T09:53:41.692Z,23.60
2022-12-27T09:57:10.029Z,25.70
2022-12-27T10:00:07.515Z,27.20
2022-12-27T10:03:09.123Z,28.60
2022-12-27T10:06:29.556Z,28.70
2022-12-27T10:09:39.993Z,28.00
2022-12-27T10:12:51.237Z,31.10
2022-12-27T10:15:55.665Z,30.80
2022-12-27T10:19:16.195Z,30.80
2022-12-27T10:22:23.784Z,30.20
2022-12-27T10:25:26.306Z,29.60
2022-12-27T10:28:39.792Z,29.80
2022-12-27T10:31:42.704Z,29.30
2022-12-27T10:34:44.468Z,29.30
2022-12-27T10:37:46.436Z,30.50
2022-12-27T10:40:56.525Z,32.70
2022-12-27T10:43:58.123Z,30.00
2022-12-27T10:47:00.013Z,30.10
2022-12-27T10:50:04.525Z,31.90
2022-12-27T10:53:06.151Z,30.70
2022-12-27T10:56:09.880Z,29.50
2022-12-27T10:59:19.116Z,30.70
2022-12-27T11:02:21.603Z,30.70
2022-12-27T11:05:25.238Z,31.50
2022-12-27T11:08:26.921Z,29.70
2022-12-27T11:11:28.544Z,27.90
2022-12-27T11:14:30.111Z,28.50
2022-12-27T11:17:40.628Z,26.80
2022-12-27T11:23:47.079Z,25.50
2022-12-27T11:29:56.864Z,23.90
2022-12-27T11:33:02.226Z,23.70
2022-12-27T11:36:04.225Z,25.20
2022-12-27T11:39:05.831Z,23.80
2022-12-27T11:42:13.581Z,22.90
2022-12-27T11:45:19.739Z,27.20
2022-12-27T11:48:25.303Z,25.40
2022-12-27T11:51:42.219Z,27.40
2022-12-27T11:55:15.990Z,25.20
2022-12-27T11:58:18.015Z,25.80
2022-12-27T12:01:28.687Z,24.70
2022-12-27T12:04:30.249Z,28.90
2022-12-27T12:07:50.608Z,25.90
2022-12-27T12:11:10.900Z,22.10
2022-12-27T12:14:32.737Z,26.60
2022-12-27T12:17:57.422Z,26.00
2022-12-27T12:21:17.818Z,28.10
2022-12-27T12:24:40.876Z,29.60
2022-12-27T12:31:02.157Z,25.50
2022-12-27T12:34:03.776Z,27.30
2022-12-27T12:37:14.579Z,27.70
2022-12-27T12:40:21.947Z,28.60
2022-12-27T12:43:29.413Z,26.80
2022-12-27T12:46:46.272Z,26.40
2022-12-27T12:49:51.045Z,27.60
2022-12-27T12:52:58.855Z,26.30
2022-12-27T12:56:19.124Z,24.70
2022-12-27T12:59:36.906Z,27.50
2022-12-27T13:02:38.559Z,25.30
2022-12-27T13:05:46.781Z,26.40
2022-12-27T13:08:56.626Z,29.00
2022-12-27T13:12:16.757Z,27.20
2022-12-27T13:15:21.258Z,26.70
2022-12-27T13:18:45.359Z,26.90
2022-12-27T13:21:53.521Z,26.20
2022-12-27T13:24:58.132Z,27.00
2022-12-27T13:28:18.423Z,27.60
2022-12-27T13:31:28.434Z,28.40
2022-12-27T13:34:39.160Z,28.70
2022-12-27T13:37:53.182Z,28.70
2022-12-27T13:41:07.951Z,29.60
2022-12-27T13:44:18.429Z,28.10
2022-12-27T13:47:26.205Z,29.30
2022-12-27T13:50:33.950Z,28.70
2022-12-27T13:53:50.235Z,27.30
2022-12-27T13:56:58.429Z,30.50
2022-12-27T14:00:03.182Z,32.20
2022-12-27T14:03:26.418Z,31.60
2022-12-27T14:06:46.727Z,31.00
2022-12-27T14:10:04.228Z,31.80
2022-12-27T14:13:05.791Z,30.90
2022-12-27T14:16:13.447Z,30.70
2022-12-27T14:19:30.016Z,31.20
2022-12-27T14:22:53.791Z,33.30
2022-12-27T14:26:04.672Z,30.40
2022-12-27T14:29:12.128Z,32.20
2022-12-27T14:32:22.819Z,31.90
2022-12-27T14:35:45.662Z,31.90
2022-12-27T14:39:00.956Z,33.70
2022-12-27T14:42:17.683Z,32.20
2022-12-27T14:45:19.338Z,32.30
2022-12-27T14:48:36.255Z,32.90
2022-12-27T14:52:00.172Z,29.80
2022-12-27T14:55:24.997Z,31.10
2022-12-27T14:58:26.529Z,32.50
2022-12-27T15:01:39.458Z,32.30
2022-12-27T15:04:45.972Z,34.50
2022-12-27T15:07:56.511Z,32.50
2022-12-27T15:11:17.076Z,33.80
2022-12-27T15:14:21.508Z,31.20
2022-12-27T15:17:31.264Z,32.00
2022-12-27T15:20:44.943Z,32.00
2022-12-27T15:23:46.474Z,34.40
2022-12-27T15:26:54.131Z,31.00
2022-12-27T15:30:17.085Z,31.40
2022-12-27T15:33:21.675Z,33.90
2022-12-27T15:36:36.967Z,30.90
2022-12-27T15:39:38.489Z,31.50
2022-12-27T15:42:49.729Z,32.50
2022-12-27T15:46:09.873Z,30.50
2022-12-27T15:49:22.267Z,29.60
2022-12-27T15:52:42.421Z,30.50
2022-12-27T15:55:46.784Z,29.40
2022-12-27T15:59:06.733Z,33.70
2022-12-27T16:02:17.538Z,34.20
2022-12-27T16:05:19.115Z,31.90
2022-12-27T16:08:25.941Z,34.30
2022-12-27T16:11:47.496Z,31.20
2022-12-27T16:14:49.298Z,28.60
2022-12-27T16:17:54.973Z,29.30
2022-12-27T16:21:09.642Z,31.60
2022-12-27T16:24:13.556Z,28.70
2022-12-27T16:27:24.393Z,42.00
2022-12-27T16:30:34.787Z,27.80
2022-12-27T16:33:37.844Z,26.60
2022-12-27T16:36:46.563Z,28.00
2022-12-27T16:40:04.967Z,29.00
2022-12-27T16:43:09.333Z,26.90
2022-12-27T16:49:12.367Z,27.50
2022-12-27T16:52:15.018Z,27.00
2022-12-27T16:55:31.703Z,26.80
2022-12-27T16:58:37.271Z,34.60
2022-12-27T17:01:44.704Z,31.20
2022-12-27T17:04:53.985Z,30.30
2022-12-27T17:07:55.996Z,31.00
2022-12-27T17:10:59.781Z,34.70
2022-12-27T17:14:10.214Z,31.60
2022-12-27T17:17:16.569Z,35.10
2022-12-27T17:20:19.120Z,31.30
2022-12-27T17:23:20.751Z,31.60
2022-12-27T17:26:22.244Z,34.30
2022-12-27T17:29:41.775Z,34.10
2022-12-27T17:33:02.510Z,36.30
2022-12-27T17:36:13.807Z,36.60
2022-12-27T17:39:31.521Z,43.50
2022-12-27T17:43:17.926Z,37.70
2022-12-27T17:46:39.873Z,34.70
2022-12-27T17:49:41.859Z,33.90
2022-12-27T17:53:19.371Z,34.60
2022-12-27T17:56:40.830Z,34.90
2022-12-27T17:59:43.233Z,39.70
2022-12-27T18:02:45.061Z,35.60
2022-12-27T18:05:47.287Z,36.80
2022-12-27T18:08:49.284Z,32.80
2022-12-27T18:11:50.927Z,34.40
2022-12-27T18:15:03.083Z,33.20
2022-12-27T18:18:06.119Z,31.30
2022-12-27T18:21:20.002Z,33.20
2022-12-27T18:24:29.768Z,28.60
2022-12-27T18:32:02.917Z,30.30
2022-12-27T18:35:05.400Z,32.10
2022-12-27T18:38:07.659Z,43.50
2022-12-27T18:41:17.115Z,33.00
2022-12-27T18:44:26.834Z,24.20
2022-12-27T18:47:29.494Z,21.40
2022-12-27T18:50:32.190Z,23.60
2022-12-27T18:53:38.545Z,20.50
2022-12-27T18:56:41.520Z,24.80
2022-12-27T18:59:43.061Z,24.70
2022-12-27T19:02:45.072Z,26.70
2022-12-27T19:05:55.698Z,31.10
2022-12-27T19:08:57.287Z,26.50
2022-12-27T19:12:00.375Z,24.10
2022-12-27T19:15:02.635Z,26.80
2022-12-27T19:18:05.855Z,27.80
2022-12-27T19:21:07.501Z,26.90
2022-12-27T19:24:38.412Z,26.50
2022-12-27T19:27:40.294Z,28.80
2022-12-27T19:30:51.669Z,31.40
2022-12-27T19:33:56.028Z,28.60
2022-12-27T19:36:57.902Z,25.50
2022-12-27T19:39:59.711Z,24.30
2022-12-27T19:43:01.311Z,23.90
2022-12-27T19:46:02.937Z,25.00
2022-12-27T19:52:26.954Z,22.30
2022-12-27T19:55:29.123Z,19.20
2022-12-27T19:58:31.006Z,21.40
2022-12-27T20:01:32.634Z,24.90
2022-12-27T20:04:34.236Z,25.20
2022-12-27T20:07:36.285Z,23.60
2022-12-27T20:10:37.826Z,23.10
2022-12-27T20:13:39.312Z,22.20
2022-12-27T20:16:41.104Z,24.10
2022-12-27T20:19:42.723Z,25.10
2022-12-27T20:22:44.373Z,26.20
2022-12-27T20:25:47.437Z,26.00
2022-12-27T20:28:49.766Z,24.80
2022-12-27T20:31:52.357Z,29.70
2022-12-27T20:34:54.050Z,27.40
2022-12-27T20:37:55.982Z,29.80
2022-12-27T20:40:57.635Z,26.90
2022-12-27T20:43:59.310Z,26.10
2022-12-27T20:47:00.866Z,24.00
2022-12-27T20:50:02.703Z,27.10
2022-12-27T20:53:04.700Z,26.60
2022-12-27T20:56:06.868Z,20.60
2022-12-27T20:59:08.605Z,27.30
2022-12-27T21:02:13.674Z,22.40
2022-12-27T21:05:23.489Z,24.40
2022-12-27T21:08:25.135Z,22.70
2022-12-27T21:11:28.551Z,24.30
2022-12-27T21:14:30.808Z,23.90
2022-12-27T21:17:32.406Z,22.30
2022-12-27T21:20:33.975Z,22.70
2022-12-27T21:23:36.325Z,25.00
2022-12-27T21:26:39.182Z,24.80
2022-12-27T21:29:40.811Z,26.90
2022-12-27T21:32:42.326Z,26.60
2022-12-27T21:35:43.879Z,28.60
2022-12-27T21:38:45.790Z,28.30
2022-12-27T21:41:47.360Z,28.10
2022-12-27T21:44:48.980Z,25.30
2022-12-27T21:47:51.235Z,25.40
2022-12-27T21:50:52.839Z,23.70
2022-12-27T21:53:54.766Z,26.10
2022-12-27T21:56:56.576Z,22.50
2022-12-27T21:59:58.837Z,23.00
2022-12-27T22:03:00.548Z,19.60
2022-12-27T22:06:15.865Z,19.10
2022-12-27T22:09:19.796Z,19.10
2022-12-27T22:12:21.453Z,27.30
2022-12-27T22:15:23.636Z,29.70
2022-12-27T22:21:30.146Z,23.10
2022-12-27T22:24:32.296Z,22.00
2022-12-27T22:27:33.911Z,20.50
2022-12-27T22:30:41.893Z,22.30
2022-12-27T22:33:44.258Z,21.60
2022-12-27T22:36:45.904Z,23.00
2022-12-27T22:39:48.156Z,22.90
2022-12-27T22:42:49.737Z,23.10
2022-12-27T22:45:53.957Z,22.50
2022-12-27T22:48:56.714Z,21.60
2022-12-27T22:51:58.314Z,22.90
2022-12-27T22:55:04.173Z,21.40
2022-12-27T22:58:09.806Z,23.80
2022-12-27T23:01:15.833Z,24.70
2022-12-27T23:04:18.491Z,24.70
2022-12-27T23:08:04.125Z,25.20
2022-12-27T23:10:44.728Z,23.80
2022-12-27T23:13:46.651Z,23.30
2022-12-27T23:16:49.097Z,23.30
2022-12-27T23:19:50.716Z,23.70
2022-12-27T23:22:52.345Z,24.20
2022-12-27T23:25:54.017Z,22.20
2022-12-27T23:28:58.498Z,21.80
2022-12-27T23:32:00.069Z,21.70
2022-12-27T23:35:01.748Z,23.70
2022-12-27T23:38:03.511Z,20.40
2022-12-27T23:41:06.617Z,21.50
2022-12-27T23:44:08.261Z,20.60
2022-12-27T23:47:09.840Z,22.50
2022-12-27T23:50:15.861Z,20.00
2022-12-27T23:53:20.682Z,22.20
2022-12-27T23:56:32.367Z,21.00
2022-12-27T23:59:33.879Z,18.70
